createdAt,value
2019-04-26T00:00:00.921Z,100049.05
2019-04-26T00:02:52.117Z,100053.28
2019-04-26T00:05:33.693Z,100048.52
2019-04-26T00:07:52.467Z,100046.94
2019-04-26T00:10:43.436Z,100045.75
2019-04-26T00:13:34.732Z,100043.19
2019-04-26T00:16:26.370Z,100040.14
2019-04-26T00:18:55.451Z,100044.28
2019-04-26T00:21:24.509Z,100034.20
2019-04-26T00:23:53.869Z,100040.11
2019-04-26T00:26:23.238Z,100038.98
2019-04-26T00:28:52.321Z,100035.99
2019-04-26T00:31:21.607Z,100030.30
2019-04-26T00:33:50.668Z,100031.70
2019-04-26T00:36:20.764Z,100027.80
2019-04-26T00:38:49.813Z,100024.75
2019-04-26T00:41:20.607Z,100025.28
2019-04-26T00:43:50.743Z,100028.92
2019-04-26T00:46:22.984Z,100027.64
2019-04-26T00:48:54.562Z,100016.97
2019-04-26T00:51:24.370Z,100023.61
2019-04-26T00:53:54.411Z,100015.69
2019-04-26T00:56:24.766Z,100014.82
2019-04-26T00:58:54.755Z,100016.22
2019-04-26T01:01:26.220Z,100019.41
2019-04-26T01:03:55.286Z,100024.52
2019-04-26T01:06:26.434Z,100019.75
2019-04-26T01:08:55.491Z,100018.12
2019-04-26T01:11:24.590Z,100014.28
2019-04-26T01:13:53.645Z,100001.95
2019-04-26T01:16:22.726Z,99999.01
2019-04-26T01:18:53.003Z,100003.67
2019-04-26T01:21:24.730Z,99998.09
2019-04-26T01:23:56.423Z,99995.19
2019-04-26T01:26:30.627Z,99994.50
2019-04-26T01:29:10.143Z,99996.05
2019-04-26T01:31:50.196Z,99995.77
2019-04-26T01:34:20.300Z,99987.48
2019-04-26T01:36:51.400Z,99994.81
2019-04-26T01:39:21.310Z,99992.33
2019-04-26T01:42:13.570Z,99991.63
2019-04-26T01:45:09.032Z,99996.27
2019-04-26T01:47:39.012Z,100001.36
2019-04-26T01:50:09.399Z,99998.02
2019-04-26T01:52:38.455Z,99999.08
2019-04-26T01:55:09.306Z,99997.45
2019-04-26T01:57:39.465Z,99997.15
2019-04-26T02:00:22.764Z,99993.28
2019-04-26T02:02:56.445Z,99997.01
2019-04-26T02:05:26.620Z,99994.95
2019-04-26T02:07:55.969Z,99987.60
2019-04-26T02:10:26.666Z,100000.16
2019-04-26T02:12:57.304Z,99997.11
2019-04-26T02:15:29.944Z,99987.03
2019-04-26T02:18:00.695Z,99985.78
2019-04-26T02:21:18.345Z,99988.08
2019-04-26T02:23:54.096Z,99985.50
2019-04-26T02:26:37.728Z,99978.56
2019-04-26T02:29:10.968Z,99984.53
2019-04-26T02:31:42.749Z,99976.66
2019-04-26T02:34:13.593Z,99973.69
2019-04-26T02:36:57.067Z,99979.98
2019-04-26T02:39:22.562Z,99981.55
2019-04-26T02:41:54.455Z,99980.35
2019-04-26T02:44:30.693Z,99980.92
2019-04-26T02:47:35.038Z,99988.61
2019-04-26T02:50:07.619Z,99996.84
2019-04-26T02:52:59.188Z,100010.69
2019-04-26T02:56:12.813Z,100007.92
2019-04-26T02:59:08.749Z,100004.61
2019-04-26T03:01:38.733Z,100005.73
2019-04-26T03:04:08.639Z,99995.72
2019-04-26T03:06:41.223Z,100007.47
2019-04-26T03:09:14.430Z,100013.80
2019-04-26T03:11:46.569Z,100028.64
2019-04-26T03:14:46.569Z,100024.88
2019-04-26T03:17:26.753Z,100018.32
2019-04-26T03:20:02.431Z,100015.27
2019-04-26T03:23:00.902Z,100009.92
2019-04-26T03:25:43.411Z,100013.56
2019-04-26T03:28:44.169Z,100013.14
2019-04-26T03:31:29.618Z,100006.50
2019-04-26T03:34:13.307Z,100003.41
2019-04-26T03:37:29.046Z,100003.91
2019-04-26T03:40:26.798Z,100006.34
2019-04-26T03:43:20.360Z,100012.77
2019-04-26T03:46:20.195Z,100013.47
2019-04-26T03:49:26.262Z,100014.48
2019-04-26T03:52:14.096Z,100017.30
2019-04-26T03:54:45.219Z,100009.55
2019-04-26T03:57:37.059Z,100017.70
2019-04-26T04:00:37.337Z,100018.23
2019-04-26T04:03:50.825Z,100023.31
2019-04-26T04:06:26.992Z,100031.95
2019-04-26T04:09:02.146Z,100030.39
2019-04-26T04:11:43.119Z,100040.73
2019-04-26T04:14:34.532Z,100042.16
2019-04-26T04:17:22.722Z,100048.45
2019-04-26T04:20:15.997Z,100044.69
2019-04-26T04:22:49.422Z,100053.74
2019-04-26T04:25:24.767Z,100059.16
2019-04-26T04:28:04.102Z,100056.53
2019-04-26T04:30:49.377Z,100056.12
2019-04-26T04:33:40.726Z,100061.02
2019-04-26T04:36:16.241Z,100061.48
2019-04-26T04:39:12.268Z,100058.88
2019-04-26T04:41:57.422Z,100067.37
2019-04-26T04:45:22.004Z,100068.30
2019-04-26T04:48:34.147Z,100076.79
2019-04-26T04:51:38.589Z,100068.89
2019-04-26T04:54:16.176Z,100077.84
2019-04-26T04:57:09.281Z,100077.00
2019-04-26T04:59:54.105Z,100078.36
2019-04-26T05:03:06.644Z,100077.55
2019-04-26T05:06:06.891Z,100070.92
2019-04-26T05:08:54.064Z,100076.68
2019-04-26T05:11:32.678Z,100080.22
2019-04-26T05:14:14.250Z,100081.05
2019-04-26T05:17:27.822Z,100086.75
2019-04-26T05:20:38.693Z,100107.20
2019-04-26T05:23:25.265Z,100110.78
2019-04-26T05:26:50.176Z,100112.58
2019-04-26T05:30:09.138Z,100113.45
2019-04-26T05:33:09.678Z,100118.37
2019-04-26T05:35:58.166Z,100117.88
2019-04-26T05:39:00.606Z,100114.30
2019-04-26T05:41:59.055Z,100112.00
2019-04-26T05:44:46.351Z,100123.91
2019-04-26T05:48:03.177Z,100121.22
2019-04-26T05:51:25.025Z,100127.84
2019-04-26T05:54:44.715Z,100126.80
2019-04-26T05:57:36.365Z,100141.31
2019-04-26T06:00:30.303Z,100138.96
2019-04-26T06:03:37.924Z,100143.30
2019-04-26T06:06:31.035Z,100149.35
2019-04-26T06:09:30.553Z,100148.36
2019-04-26T06:12:07.478Z,100147.43
2019-04-26T06:14:58.973Z,100140.55
2019-04-26T06:18:10.265Z,100144.42
2019-04-26T06:20:52.938Z,100146.13
2019-04-26T06:23:53.921Z,100145.03
2019-04-26T06:27:14.384Z,100150.73
2019-04-26T06:29:53.539Z,100147.91
2019-04-26T06:32:29.457Z,100133.93
2019-04-26T06:35:08.883Z,100129.79
2019-04-26T06:37:57.341Z,100142.56
2019-04-26T06:40:42.067Z,100143.76
2019-04-26T06:43:26.398Z,100146.72
2019-04-26T06:46:59.795Z,100151.48
2019-04-26T06:50:05.574Z,100155.31
2019-04-26T06:52:39.526Z,100164.48
2019-04-26T06:55:28.830Z,100169.21
2019-04-26T06:58:29.039Z,100169.93
2019-04-26T07:01:13.467Z,100171.52
2019-04-26T07:04:09.888Z,100162.92
2019-04-26T07:06:50.069Z,100165.87
2019-04-26T07:09:21.576Z,100164.36
2019-04-26T07:12:38.384Z,100159.72
2019-04-26T07:15:43.374Z,100168.02
2019-04-26T07:18:30.019Z,100170.11
2019-04-26T07:21:20.813Z,100162.36
2019-04-26T07:24:30.477Z,100154.22
2019-04-26T07:27:36.347Z,100166.95
2019-04-26T07:30:39.665Z,100179.73
2019-04-26T07:34:03.780Z,100182.67
2019-04-26T07:37:09.651Z,100174.49
2019-04-26T07:40:22.798Z,100170.75
2019-04-26T07:43:23.605Z,100171.41
2019-04-26T07:46:42.247Z,100163.09
2019-04-26T07:49:48.043Z,100170.90
2019-04-26T07:52:55.942Z,100175.82
2019-04-26T07:55:55.672Z,100194.20
2019-04-26T07:59:08.819Z,100197.48
2019-04-26T08:02:05.093Z,100193.12
2019-04-26T08:04:40.241Z,100193.73
2019-04-26T08:07:13.241Z,100213.11
2019-04-26T08:09:59.504Z,100206.15
2019-04-26T08:12:22.690Z,100214.91
2019-04-26T08:15:40.379Z,100220.03
2019-04-26T08:18:21.512Z,100220.63
2019-04-26T08:21:15.564Z,100219.91
2019-04-26T08:23:57.845Z,100229.61
2019-04-26T08:26:30.109Z,100234.22
2019-04-26T08:29:02.401Z,100252.68
2019-04-26T08:31:33.713Z,100244.44
2019-04-26T08:34:08.707Z,100242.77
2019-04-26T08:36:46.311Z,100249.55
2019-04-26T08:39:32.546Z,100249.74
2019-04-26T08:42:00.620Z,100254.83
2019-04-26T08:44:46.084Z,100248.83
2019-04-26T08:47:34.445Z,100246.06
2019-04-26T08:50:12.184Z,100247.77
2019-04-26T08:52:42.365Z,100240.91
2019-04-26T08:55:12.555Z,100234.86
2019-04-26T08:57:44.791Z,100229.19
2019-04-26T09:00:41.170Z,100223.99
2019-04-26T09:03:35.280Z,100226.56
2019-04-26T09:06:15.588Z,100211.70
2019-04-26T09:08:46.915Z,100216.05
2019-04-26T09:11:25.894Z,100206.16
2019-04-26T09:13:51.069Z,100213.63
2019-04-26T09:16:21.699Z,100218.45
2019-04-26T09:18:54.178Z,100236.18
2019-04-26T09:21:31.908Z,100232.04
2019-04-26T09:24:21.158Z,100239.45
2019-04-26T09:27:20.972Z,100233.97
2019-04-26T09:30:19.945Z,100243.13
2019-04-26T09:33:04.058Z,100233.73
2019-04-26T09:35:33.141Z,100229.98
2019-04-26T09:38:02.207Z,100245.50
2019-04-26T09:40:32.482Z,100252.10
2019-04-26T09:43:16.584Z,100244.73
2019-04-26T09:46:07.089Z,100262.41
2019-04-26T09:48:40.662Z,100266.55
2019-04-26T09:51:09.981Z,100263.21
2019-04-26T09:53:39.462Z,100259.84
2019-04-26T09:56:09.840Z,100261.82
2019-04-26T09:58:38.911Z,100264.96
2019-04-26T10:01:07.987Z,100271.70
2019-04-26T10:03:37.054Z,100268.56
2019-04-26T10:06:08.191Z,100268.64
2019-04-26T10:08:37.102Z,100271.82
2019-04-26T10:11:09.592Z,100263.51
2019-04-26T10:13:53.507Z,100262.23
2019-04-26T10:16:47.471Z,100267.14
2019-04-26T10:19:21.528Z,100261.80
2019-04-26T10:21:50.610Z,100256.34
2019-04-26T10:24:19.663Z,100260.78
2019-04-26T10:26:48.758Z,100255.31
2019-04-26T10:29:17.843Z,100252.12
2019-04-26T10:31:47.535Z,100256.27
2019-04-26T10:34:17.733Z,100264.27
2019-04-26T10:36:47.009Z,100263.13
2019-04-26T10:39:17.550Z,100266.63
2019-04-26T10:41:46.659Z,100260.10
2019-04-26T10:44:15.732Z,100258.66
2019-04-26T10:46:55.063Z,100257.14
2019-04-26T10:49:40.828Z,100277.92
2019-04-26T10:52:15.779Z,100264.23
2019-04-26T10:54:47.823Z,100273.58
2019-04-26T10:57:21.067Z,100266.64
2019-04-26T10:59:53.441Z,100265.23
2019-04-26T11:02:22.528Z,100266.67
2019-04-26T11:04:51.892Z,100265.67
2019-04-26T11:07:20.978Z,100270.72
2019-04-26T11:09:50.040Z,100277.12
2019-04-26T11:12:19.468Z,100274.97
2019-04-26T11:14:48.735Z,100278.23
2019-04-26T11:17:17.935Z,100279.33
2019-04-26T11:19:46.890Z,100279.39
2019-04-26T11:22:28.326Z,100282.39
2019-04-26T11:24:50.047Z,100287.28
2019-04-26T11:27:17.507Z,100293.06
2019-04-26T11:29:53.544Z,100286.72
2019-04-26T11:32:17.512Z,100293.03
2019-04-26T11:34:46.572Z,100288.50
2019-04-26T11:37:17.790Z,100279.61
2019-04-26T11:39:46.453Z,100280.47
2019-04-26T11:42:15.574Z,100279.48
2019-04-26T11:44:44.915Z,100273.18
2019-04-26T11:47:13.960Z,100285.01
2019-04-26T11:49:43.061Z,100274.06
2019-04-26T11:52:12.095Z,100282.36
2019-04-26T11:54:41.143Z,100283.52
2019-04-26T11:57:12.033Z,100286.08
2019-04-26T11:59:40.944Z,100299.05
2019-04-26T12:02:12.328Z,100301.98
2019-04-26T12:04:49.564Z,100294.86
2019-04-26T12:07:27.691Z,100292.91
2019-04-26T12:09:58.534Z,100299.19
2019-04-26T12:12:27.614Z,100291.84
2019-04-26T12:14:56.673Z,100302.13
2019-04-26T12:17:27.062Z,100308.25
2019-04-26T12:19:56.297Z,100307.39
2019-04-26T12:22:25.383Z,100299.88
2019-04-26T12:24:54.441Z,100307.14
2019-04-26T12:27:26.630Z,100320.94
2019-04-26T12:29:54.367Z,100330.73
2019-04-26T12:32:23.495Z,100331.77
2019-04-26T12:34:52.591Z,100337.66
2019-04-26T12:37:21.655Z,100343.39
2019-04-26T12:39:50.751Z,100350.81
2019-04-26T12:42:19.818Z,100344.28
2019-04-26T12:45:02.400Z,100348.44
2019-04-26T12:47:41.067Z,100356.55
2019-04-26T12:50:10.132Z,100364.95
2019-04-26T12:52:39.202Z,100374.31
2019-04-26T12:55:08.379Z,100380.52
2019-04-26T12:57:40.862Z,100384.95
2019-04-26T13:00:08.372Z,100398.79
2019-04-26T13:02:37.439Z,100387.55
2019-04-26T13:05:07.014Z,100387.01
2019-04-26T13:07:38.995Z,100398.44
2019-04-26T13:10:38.384Z,100387.27
2019-04-26T13:13:24.344Z,100386.95
2019-04-26T13:16:12.395Z,100391.20
2019-04-26T13:18:45.418Z,100378.51
2019-04-26T13:21:12.291Z,100388.13
2019-04-26T13:23:41.379Z,100394.48
2019-04-26T13:26:10.443Z,100380.80
2019-04-26T13:28:39.599Z,100375.31
2019-04-26T13:31:08.670Z,100368.55
2019-04-26T13:33:37.762Z,100358.77
2019-04-26T13:36:06.817Z,100365.27
2019-04-26T13:38:39.341Z,100361.95
2019-04-26T13:41:07.047Z,100358.92
2019-04-26T13:43:36.135Z,100347.91
2019-04-26T13:46:27.017Z,100351.80
2019-04-26T13:49:17.642Z,100346.05
2019-04-26T13:51:45.481Z,100355.28
2019-04-26T13:54:16.476Z,100359.41
2019-04-26T13:56:45.337Z,100358.56
2019-04-26T13:59:14.420Z,100358.95
2019-04-26T14:01:43.602Z,100358.47
2019-04-26T14:04:12.729Z,100376.81
2019-04-26T14:06:41.765Z,100387.76
2019-04-26T14:09:13.244Z,100384.60
2019-04-26T14:11:42.319Z,100378.63
2019-04-26T14:14:11.398Z,100363.94
2019-04-26T14:16:40.466Z,100367.23
2019-04-26T14:19:14.823Z,100371.78
2019-04-26T14:21:40.436Z,100372.73
2019-04-26T14:24:23.976Z,100378.63
2019-04-26T14:26:56.102Z,100395.09
2019-04-26T14:29:28.480Z,100390.83
2019-04-26T14:31:56.065Z,100397.52
2019-04-26T14:34:25.127Z,100379.15
2019-04-26T14:37:05.815Z,100372.54
2019-04-26T14:39:38.210Z,100385.89
2019-04-26T14:41:57.066Z,100391.90
2019-04-26T14:44:27.129Z,100390.47
2019-04-26T14:46:57.972Z,100397.00
2019-04-26T14:49:38.594Z,100393.03
2019-04-26T14:51:57.911Z,100401.64
2019-04-26T14:54:26.969Z,100408.98
2019-04-26T14:56:59.817Z,100422.36
2019-04-26T14:59:52.924Z,100423.69
2019-04-26T15:02:41.649Z,100414.26
2019-04-26T15:05:17.276Z,100417.81
2019-04-26T15:07:51.093Z,100436.73
2019-04-26T15:10:18.790Z,100431.56
2019-04-26T15:12:52.686Z,100424.51
2019-04-26T15:15:18.667Z,100420.59
2019-04-26T15:17:47.763Z,100429.80
2019-04-26T15:20:20.766Z,100433.52
2019-04-26T15:22:49.938Z,100449.66
2019-04-26T15:25:18.556Z,100436.28
2019-04-26T15:27:47.641Z,100428.44
2019-04-26T15:30:16.708Z,100434.66
2019-04-26T15:32:45.821Z,100446.48
2019-04-26T15:35:17.636Z,100455.42
2019-04-26T15:37:45.612Z,100449.70
2019-04-26T15:40:31.402Z,100451.67
2019-04-26T15:43:14.220Z,100451.81
2019-04-26T15:45:52.550Z,100465.23
2019-04-26T15:48:43.469Z,100455.52
2019-04-26T15:51:12.881Z,100461.79
2019-04-26T15:53:44.932Z,100464.27
2019-04-26T15:56:16.268Z,100478.93
2019-04-26T15:58:47.927Z,100474.15
2019-04-26T16:01:14.297Z,100463.55
2019-04-26T16:03:44.566Z,100461.92
2019-04-26T16:06:13.825Z,100464.03
2019-04-26T16:08:44.037Z,100478.40
2019-04-26T16:11:13.131Z,100488.06
2019-04-26T16:13:45.178Z,100484.16
2019-04-26T16:16:12.955Z,100495.62
2019-04-26T16:18:43.110Z,100481.48
2019-04-26T16:21:17.920Z,100477.11
2019-04-26T16:23:50.936Z,100482.13
2019-04-26T16:26:15.385Z,100476.24
2019-04-26T16:29:18.294Z,100477.48
2019-04-26T16:32:16.944Z,100481.63
2019-04-26T16:34:47.602Z,100490.14
2019-04-26T16:37:21.857Z,100484.59
2019-04-26T16:39:48.698Z,100501.50
2019-04-26T16:42:17.834Z,100511.00
2019-04-26T16:44:46.890Z,100526.88
2019-04-26T16:47:15.989Z,100514.11
2019-04-26T16:49:46.605Z,100511.55
2019-04-26T16:52:15.870Z,100506.66
2019-04-26T16:54:44.952Z,100506.34
2019-04-26T16:57:14.002Z,100508.39
2019-04-26T16:59:47.664Z,100512.16
2019-04-26T17:02:16.107Z,100515.79
2019-04-26T17:04:44.682Z,100513.84
2019-04-26T17:07:14.126Z,100512.72
2019-04-26T17:09:57.357Z,100519.70
2019-04-26T17:12:16.165Z,100525.19
2019-04-26T17:14:48.738Z,100532.59
2019-04-26T17:17:16.141Z,100541.32
2019-04-26T17:19:45.221Z,100538.64
2019-04-26T17:22:23.937Z,100533.80
2019-04-26T17:25:23.667Z,100541.32
2019-04-26T17:27:47.491Z,100537.78
2019-04-26T17:30:20.519Z,100550.34
2019-04-26T17:32:51.533Z,100551.38
2019-04-26T17:35:20.407Z,100562.64
2019-04-26T17:37:50.253Z,100561.39
2019-04-26T17:40:23.699Z,100562.30
2019-04-26T17:42:51.163Z,100546.72
2019-04-26T17:45:21.257Z,100539.83
2019-04-26T17:47:50.679Z,100533.70
2019-04-26T17:50:21.181Z,100527.15
2019-04-26T17:52:51.556Z,100533.08
2019-04-26T17:55:20.792Z,100551.97
2019-04-26T17:57:50.668Z,100551.19
2019-04-26T18:00:28.423Z,100562.48
2019-04-26T18:02:55.368Z,100572.41
2019-04-26T18:05:41.743Z,100576.13
2019-04-26T18:07:58.321Z,100575.36
2019-04-26T18:10:26.180Z,100575.47
2019-04-26T18:12:55.251Z,100571.06
2019-04-26T18:15:24.347Z,100569.31
2019-04-26T18:18:05.908Z,100572.96
2019-04-26T18:20:52.969Z,100570.81
2019-04-26T18:23:23.359Z,100582.48
2019-04-26T18:25:52.766Z,100588.34
2019-04-26T18:28:22.759Z,100579.53
2019-04-26T18:30:53.113Z,100574.70
2019-04-26T18:33:25.855Z,100565.87
2019-04-26T18:35:55.912Z,100561.03
2019-04-26T18:38:24.820Z,100565.03
2019-04-26T18:41:01.040Z,100569.11
2019-04-26T18:43:24.907Z,100566.13
2019-04-26T18:45:58.558Z,100564.09
2019-04-26T18:48:26.664Z,100574.48
2019-04-26T18:50:55.745Z,100589.27
2019-04-26T18:53:53.201Z,100611.61
2019-04-26T18:56:23.908Z,100635.31
2019-04-26T18:58:55.664Z,100682.52
2019-04-26T19:01:23.912Z,100708.41
2019-04-26T19:03:54.174Z,100735.71
2019-04-26T19:06:30.940Z,100737.11
2019-04-26T19:08:57.510Z,100733.69
2019-04-26T19:11:24.854Z,100739.14
2019-04-26T19:14:22.216Z,100746.75
2019-04-26T19:17:16.437Z,100739.73
2019-04-26T19:19:59.154Z,100735.77
2019-04-26T19:22:28.248Z,100735.44
2019-04-26T19:24:57.650Z,100738.58
2019-04-26T19:27:27.699Z,100732.04
2019-04-26T19:29:56.832Z,100721.39
2019-04-26T19:32:25.941Z,100724.97
2019-04-26T19:34:55.010Z,100729.39
2019-04-26T19:37:24.114Z,100733.38
2019-04-26T19:39:53.183Z,100729.41
2019-04-26T19:42:22.276Z,100735.66
2019-04-26T19:45:09.557Z,100732.11
2019-04-26T19:47:44.005Z,100743.23
2019-04-26T19:50:24.641Z,100731.77
2019-04-26T19:53:03.604Z,100735.36
2019-04-26T19:55:41.787Z,100743.82
2019-04-26T19:58:16.694Z,100731.84
2019-04-26T20:00:46.723Z,100738.03
2019-04-26T20:03:16.733Z,100734.91
2019-04-26T20:05:46.143Z,100731.38
2019-04-26T20:08:15.232Z,100726.08
2019-04-26T20:10:45.905Z,100707.91
2019-04-26T20:13:16.591Z,100718.96
2019-04-26T20:15:46.028Z,100718.10
2019-04-26T20:18:17.522Z,100716.78
2019-04-26T20:20:45.930Z,100706.61
2019-04-26T20:23:15.047Z,100699.55
2019-04-26T20:25:44.122Z,100691.98
2019-04-26T20:28:14.063Z,100683.14
2019-04-26T20:30:57.935Z,100686.72
2019-04-26T20:33:26.796Z,100700.45
2019-04-26T20:35:57.449Z,100689.88
2019-04-26T20:38:26.479Z,100699.20
2019-04-26T20:40:55.561Z,100699.66
2019-04-26T20:43:26.668Z,100689.91
2019-04-26T20:46:10.428Z,100681.52
2019-04-26T20:48:30.045Z,100677.52
2019-04-26T20:50:57.129Z,100673.95
2019-04-26T20:53:26.234Z,100677.98
2019-04-26T20:55:55.320Z,100669.11
2019-04-26T20:58:24.424Z,100667.37
2019-04-26T21:00:54.685Z,100674.89
2019-04-26T21:03:27.609Z,100703.72
2019-04-26T21:05:59.206Z,100716.56
2019-04-26T21:08:26.924Z,100719.67
2019-04-26T21:11:00.049Z,100738.28
2019-04-26T21:13:30.896Z,100751.99
2019-04-26T21:15:58.749Z,100753.32
2019-04-26T21:18:28.528Z,100761.30
2019-04-26T21:20:57.606Z,100765.73
2019-04-26T21:23:26.718Z,100767.47
2019-04-26T21:26:14.800Z,100767.94
2019-04-26T21:28:51.965Z,100768.35
2019-04-26T21:31:30.564Z,100776.37
2019-04-26T21:34:03.748Z,100787.88
2019-04-26T21:36:53.276Z,100800.30
2019-04-26T21:39:50.922Z,100796.32
2019-04-26T21:42:21.063Z,100793.21
2019-04-26T21:44:52.706Z,100794.13
2019-04-26T21:47:23.168Z,100793.68
2019-04-26T21:49:58.679Z,100796.34
2019-04-26T21:52:27.996Z,100786.62
2019-04-26T21:54:56.375Z,100787.94
2019-04-26T21:57:27.834Z,100778.64
2019-04-26T21:59:55.690Z,100778.17
2019-04-26T22:02:29.627Z,100780.38
2019-04-26T22:04:56.684Z,100778.17
2019-04-26T22:07:25.789Z,100770.20
2019-04-26T22:10:14.301Z,100763.10
2019-04-26T22:12:45.102Z,100760.03
2019-04-26T22:15:25.473Z,100759.58
2019-04-26T22:17:57.442Z,100759.12
2019-04-26T22:20:57.667Z,100756.45
2019-04-26T22:23:51.992Z,100755.57
2019-04-26T22:26:23.672Z,100760.43
2019-04-26T22:28:53.401Z,100765.75
2019-04-26T22:31:23.739Z,100767.48
2019-04-26T22:33:55.890Z,100771.05
2019-04-26T22:36:27.406Z,100777.23
2019-04-26T22:38:55.636Z,100773.67
2019-04-26T22:41:28.481Z,100774.12
2019-04-26T22:44:15.169Z,100771.46
2019-04-26T22:47:03.616Z,100765.69
2019-04-26T22:49:36.844Z,100756.38
2019-04-26T22:52:06.267Z,100748.41
2019-04-26T22:54:37.795Z,100743.08
2019-04-26T22:57:08.231Z,100737.77
2019-04-26T22:59:38.079Z,100728.45
2019-04-26T23:02:08.892Z,100720.92
2019-04-26T23:04:37.985Z,100721.34
2019-04-26T23:07:08.490Z,100716.02
2019-04-26T23:09:37.580Z,100720.92
2019-04-26T23:12:28.795Z,100713.82
2019-04-26T23:15:15.403Z,100710.28
2019-04-26T23:18:09.423Z,100694.34
2019-04-26T23:20:57.092Z,100683.27
2019-04-26T23:23:26.158Z,100684.19
2019-04-26T23:25:55.240Z,100694.82
2019-04-26T23:28:27.761Z,100703.67
2019-04-26T23:30:55.217Z,100707.66
2019-04-26T23:33:24.292Z,100726.73
2019-04-26T23:35:53.416Z,100732.50
2019-04-26T23:38:23.488Z,100740.48
2019-04-26T23:40:52.627Z,100734.70
2019-04-26T23:43:25.411Z,100724.95
2019-04-26T23:45:53.039Z,100734.71
2019-04-26T23:48:22.168Z,100734.25
2019-04-26T23:50:51.249Z,100731.64
2019-04-26T23:53:21.316Z,100734.31
2019-04-26T23:55:50.492Z,100742.74
2019-04-26T23:58:19.553Z,100752.47
